Time;durP1;ratioP1;P1;durP2;ratioP2;P2;SDS_P1;SDS_P2;PMS_P1;PMS_P2;Temp;Humidity;BMP_temperature;BMP_pressure;BME280_temperature;BME280_humidity;BME280_pressure;Samples;Min_cycle;Max_cycle;Signal;HPM_P1;HPM_P2
2022/09/26 00:01:50;;;;;;;18.60;14.10;;;;;;;8.12;85.64;99794.77;87294;1287;25222;-75
2022/09/26 00:03:57;;;;;;;16.70;14.00;;;;;;;8.09;85.53;99791.23;87255;1280;22784;-73
2022/09/26 00:06:03;;;;;;;21.50;14.60;;;;;;;8.05;85.64;99789.12;87286;1302;22658;-75
2022/09/26 00:08:09;;;;;;;17.70;14.10;;;;;;;8.03;85.71;99785.70;87266;1278;22471;-77
2022/09/26 00:10:14;;;;;;;16.60;13.70;;;;;;;8.00;85.69;99784.27;87310;1279;22762;-75
2022/09/26 00:12:20;;;;;;;18.30;14.00;;;;;;;7.96;85.72;99782.85;87311;1278;22588;-75
2022/09/26 00:14:27;;;;;;;18.40;16.00;;;;;;;7.91;85.92;99779.71;87270;1303;22754;-75
2022/09/26 00:16:33;;;;;;;19.10;14.20;;;;;;;7.90;85.93;99779.96;87283;1288;22525;-74
2022/09/26 00:18:38;;;;;;;17.00;14.30;;;;;;;7.87;85.75;99779.54;87280;1278;22469;-74
2022/09/26 00:20:44;;;;;;;18.80;14.60;;;;;;;7.85;85.86;99777.02;87303;1303;22459;-76
2022/09/26 00:22:49;;;;;;;16.00;13.50;;;;;;;7.84;85.85;99779.30;87236;1278;22699;-75
2022/09/26 00:24:55;;;;;;;20.70;15.60;;;;;;;7.83;85.96;99771.18;87276;1283;22479;-74
2022/09/26 00:27:00;;;;;;;16.60;13.50;;;;;;;7.81;85.93;99766.55;87294;1303;24275;-74
2022/09/26 00:29:08;;;;;;;18.30;14.20;;;;;;;7.79;86.01;99765.06;87286;1302;22470;-75
2022/09/26 00:31:17;;;;;;;22.10;13.70;;;;;;;7.79;86.22;99763.16;87280;1302;22491;-75
2022/09/26 00:33:23;;;;;;;18.90;15.50;;;;;;;7.76;85.88;99762.73;87301;1301;22470;-77
2022/09/26 00:35:29;;;;;;;17.50;14.80;;;;;;;7.72;85.90;99755.23;87270;1278;22463;-73
2022/09/26 00:37:35;;;;;;;16.80;14.30;;;;;;;7.70;86.11;99758.95;87284;1302;22768;-75
2022/09/26 00:39:44;;;;;;;17.90;14.20;;;;;;;7.68;86.01;99760.96;87298;1277;22470;-75
2022/09/26 00:41:49;;;;;;;15.00;13.50;;;;;;;7.63;85.91;99761.98;87313;1289;22459;-74
2022/09/26 00:43:55;;;;;;;17.70;14.30;;;;;;;7.59;85.82;99760.06;87253;1277;24263;-76
2022/09/26 00:46:09;;;;;;;15.10;13.30;;;;;;;7.54;85.91;99757.45;87305;1279;22472;-74
2022/09/26 00:48:15;;;;;;;16.60;12.40;;;;;;;7.49;85.62;99760.23;87274;1277;22483;-76
2022/09/26 00:50:22;;;;;;;18.50;13.70;;;;;;;7.45;85.81;99763.50;87292;1284;22467;-75
2022/09/26 00:52:29;;;;;;;19.40;14.50;;;;;;;7.45;86.08;99766.64;87234;1271;22476;-74
2022/09/26 00:54:35;;;;;;;19.20;13.30;;;;;;;7.44;86.19;99765.95;87278;1277;22478;-75
2022/09/26 00:56:42;;;;;;;21.50;14.40;;;;;;;7.42;85.97;99768.11;87292;1284;22440;-73
2022/09/26 00:58:49;;;;;;;19.20;14.60;;;;;;;7.39;85.96;99766.14;87301;1284;22932;-74
2022/09/26 01:00:54;;;;;;;17.20;13.70;;;;;;;7.37;85.97;99768.64;87257;1277;22461;-74
2022/09/26 01:03:00;;;;;;;17.90;13.40;;;;;;;7.33;85.90;99764.10;87294;1279;22482;-74
2022/09/26 01:05:10;;;;;;;17.70;12.70;;;;;;;7.29;85.93;99762.65;87303;1296;24240;-75
2022/09/26 01:07:19;;;;;;;16.00;13.70;;;;;;;7.24;85.85;99760.92;87257;1303;22489;-75
2022/09/26 01:09:25;;;;;;;18.40;13.80;;;;;;;7.20;85.79;99761.94;87196;1304;22462;-75
2022/09/26 01:11:31;;;;;;;15.50;12.70;;;;;;;7.16;85.99;99763.60;87296;1278;22474;-76
2022/09/26 01:13:36;;;;;;;18.50;12.80;;;;;;;7.15;85.94;99760.73;87282;1284;22454;-76
2022/09/26 01:15:41;;;;;;;18.30;13.10;;;;;;;7.12;86.08;99757.70;87283;1295;22470;-74
2022/09/26 01:17:48;;;;;;;19.30;13.00;;;;;;;7.10;85.93;99756.02;87267;1302;22476;-75
2022/09/26 01:20:21;;;;;;;14.90;13.40;;;;;;;7.08;86.15;99755.04;87211;1283;22479;-77
2022/09/26 01:23:09;;;;;;;17.40;13.70;;;;;;;7.04;86.12;99754.65;87259;1297;22488;-73
2022/09/26 01:25:23;;;;;;;15.50;13.50;;;;;;;7.00;86.08;99758.98;87076;1286;23756;-75
2022/09/26 01:27:56;;;;;;;18.90;14.20;;;;;;;6.97;86.19;99759.23;87283;1278;22913;-72
2022/09/26 01:30:09;;;;;;;18.00;13.80;;;;;;;6.94;86.20;99755.86;87263;1289;22454;-74
2022/09/26 01:34:52;;;;;;;18.00;13.90;;;;;;;6.94;86.75;99750.13;87267;1278;25753;-75
2022/09/26 01:37:04;;;;;;;17.80;12.80;;;;;;;6.94;86.76;99747.00;87263;1302;22628;-73
2022/09/26 01:39:22;;;;;;;17.70;14.20;;;;;;;6.96;87.20;99745.02;87272;1284;22466;-75
2022/09/26 01:41:38;;;;;;;22.60;14.40;;;;;;;6.95;86.92;99742.63;87293;1291;22912;-74
2022/09/26 01:43:49;;;;;;;16.30;13.20;;;;;;;6.93;86.87;99743.92;87291;1281;22473;-75
2022/09/26 01:45:58;;;;;;;15.90;14.20;;;;;;;6.92;86.76;99738.95;87302;1278;24287;-75
2022/09/26 01:48:07;;;;;;;15.40;13.10;;;;;;;6.90;86.53;99736.94;87336;1275;22458;-75
2022/09/26 01:50:17;;;;;;;16.70;13.10;;;;;;;6.86;86.57;99736.54;87290;1278;22904;-75
2022/09/26 01:52:28;;;;;;;19.50;14.30;;;;;;;6.82;86.39;99733.55;87184;1303;22467;-76
2022/09/26 01:54:37;;;;;;;20.20;14.90;;;;;;;6.77;86.46;99734.42;87278;1303;22445;-76
2022/09/26 01:56:42;;;;;;;18.60;15.40;;;;;;;6.72;86.39;99731.42;87239;1296;22453;-74
2022/09/26 01:58:51;;;;;;;19.50;14.40;;;;;;;6.67;86.46;99734.19;87201;1302;23746;-75
2022/09/26 02:00:57;;;;;;;16.80;13.70;;;;;;;6.64;86.51;99736.89;87152;1280;22487;-73
2022/09/26 02:03:03;;;;;;;18.00;14.00;;;;;;;6.62;86.49;99739.92;87283;1281;22463;-74
2022/09/26 02:05:16;;;;;;;14.70;13.10;;;;;;;6.58;86.44;99739.86;87310;1302;22486;-75
2022/09/26 02:07:23;;;;;;;16.10;13.80;;;;;;;6.54;86.49;99737.58;87299;1295;22704;-73
2022/09/26 02:09:32;;;;;;;15.20;12.40;;;;;;;6.52;86.35;99733.48;87285;1278;22455;-72
2022/09/26 02:11:37;;;;;;;16.60;13.80;;;;;;;6.49;86.54;99732.02;87307;1278;24305;-76
2022/09/26 02:13:47;;;;;;;18.50;12.70;;;;;;;6.46;86.25;99733.49;87296;1302;22463;-75
2022/09/26 02:15:57;;;;;;;17.50;14.00;;;;;;;6.42;86.11;99733.42;87327;1280;22467;-75
2022/09/26 02:18:05;;;;;;;16.80;13.70;;;;;;;6.37;86.27;99734.11;87216;1286;22530;-75
2022/09/26 02:20:14;;;;;;;17.80;14.60;;;;;;;6.34;86.31;99736.28;87295;1278;22468;-73
2022/09/26 02:22:19;;;;;;;17.00;13.00;;;;;;;6.30;86.25;99731.05;87266;1271;22454;-75
2022/09/26 02:24:25;;;;;;;16.00;12.90;;;;;;;6.25;86.33;99728.08;87276;1281;22457;-73
2022/09/26 02:26:32;;;;;;;14.40;12.60;;;;;;;6.22;86.54;99727.48;87246;1302;24264;-74
2022/09/26 02:28:38;;;;;;;18.00;13.40;;;;;;;6.19;86.22;99726.50;87185;1304;22495;-75
2022/09/26 02:30:45;;;;;;;16.90;13.30;;;;;;;6.18;86.67;99726.55;87292;1295;22466;-73
2022/09/26 02:32:50;;;;;;;22.60;14.00;;;;;;;6.17;86.55;99733.34;87250;1288;24266;-75
2022/09/26 02:34:56;;;;;;;16.30;14.10;;;;;;;6.15;86.63;99733.73;87291;1276;26648;-74
2022/09/26 02:37:01;;;;;;;17.50;13.80;;;;;;;6.14;86.73;99730.80;87258;1302;22459;-75
2022/09/26 02:39:09;;;;;;;29.40;14.10;;;;;;;6.13;86.50;99730.69;87276;1295;22470;-75
2022/09/26 02:41:22;;;;;;;17.20;14.40;;;;;;;6.11;86.74;99730.08;87280;1302;22473;-75
2022/09/26 02:43:44;;;;;;;17.20;13.70;;;;;;;6.09;86.79;99728.91;87255;1278;22716;-75
2022/09/26 02:45:52;;;;;;;16.90;13.90;;;;;;;6.02;86.44;99727.40;87264;1302;24084;-75
2022/09/26 02:48:24;;;;;;;19.30;14.40;;;;;;;5.98;86.71;99726.98;87253;1302;24260;-73
2022/09/26 02:50:42;;;;;;;17.90;13.10;;;;;;;5.97;87.00;99723.05;87259;1303;22463;-75
2022/09/26 02:52:55;;;;;;;17.90;14.00;;;;;;;5.97;86.92;99723.39;87258;1297;22495;-76
2022/09/26 02:55:09;;;;;;;18.40;14.30;;;;;;;5.95;87.02;99723.45;87201;1304;22470;-75
2022/09/26 02:57:29;;;;;;;18.00;13.40;;;;;;;5.94;87.12;99724.30;87229;1271;22447;-75
2022/09/26 02:59:40;;;;;;;16.40;14.40;;;;;;;5.94;86.95;99721.20;87274;1302;22451;-75
2022/09/26 03:01:52;;;;;;;18.90;14.80;;;;;;;5.92;86.87;99723.02;87292;1290;22485;-75
2022/09/26 03:04:01;;;;;;;17.10;14.10;;;;;;;5.91;86.75;99724.39;87317;1301;24385;-75
2022/09/26 03:06:12;;;;;;;19.10;15.00;;;;;;;5.88;86.87;99722.21;87284;1278;24285;-74
2022/09/26 03:08:22;;;;;;;18.20;14.40;;;;;;;5.86;86.98;99718.63;87264;1282;26057;-73
2022/09/26 03:10:28;;;;;;;22.00;15.30;;;;;;;5.84;86.85;99720.27;87267;1303;23866;-74
2022/09/26 03:12:34;;;;;;;17.40;14.40;;;;;;;5.81;86.98;99716.55;87263;1284;22463;-74
2022/09/26 03:14:40;;;;;;;19.70;14.90;;;;;;;5.78;87.12;99716.45;87296;1290;25229;-75
2022/09/26 03:16:46;;;;;;;14.90;13.30;;;;;;;5.76;87.25;99719.46;87294;1281;22519;-74
2022/09/26 03:18:54;;;;;;;18.90;14.10;;;;;;;5.74;87.19;99716.59;87312;1277;22465;-74
2022/09/26 03:21:00;;;;;;;17.90;15.00;;;;;;;5.71;86.80;99712.00;87229;1302;24262;-74
2022/09/26 03:23:06;;;;;;;16.20;13.80;;;;;;;5.68;87.12;99712.27;87172;1281;22474;-75
2022/09/26 03:25:13;;;;;;;18.30;14.30;;;;;;;5.67;87.35;99707.41;87219;1279;22466;-74
2022/09/26 03:27:18;;;;;;;21.50;15.30;;;;;;;5.67;87.06;99707.58;87264;1302;22475;-77
2022/09/26 03:29:24;;;;;;;18.80;14.10;;;;;;;5.65;86.89;99709.23;87284;1288;26558;-77
2022/09/26 03:31:30;;;;;;;18.00;13.30;;;;;;;5.64;87.27;99708.90;87298;1280;22743;-74
2022/09/26 03:33:35;;;;;;;16.90;14.60;;;;;;;5.64;87.13;99709.77;87314;1284;22524;-75
2022/09/26 03:35:41;;;;;;;19.90;15.00;;;;;;;5.63;87.28;99706.69;87327;1271;24292;-76
2022/09/26 03:37:46;;;;;;;20.20;15.30;;;;;;;5.61;87.44;99705.85;87174;1281;22474;-75
2022/09/26 03:39:52;;;;;;;16.20;14.50;;;;;;;5.59;87.40;99704.02;87297;1294;23358;-73
2022/09/26 03:41:59;;;;;;;19.40;13.70;;;;;;;5.56;87.26;99701.16;87309;1278;22464;-75
2022/09/26 03:44:04;;;;;;;17.90;13.70;;;;;;;5.55;87.22;99704.14;87317;1298;22622;-74
2022/09/26 03:46:10;;;;;;;18.60;13.80;;;;;;;5.51;87.08;99704.27;87348;1302;26433;-74
2022/09/26 03:48:16;;;;;;;20.10;14.00;;;;;;;5.48;87.15;99700.70;87256;1296;22469;-74
2022/09/26 03:50:22;;;;;;;21.00;14.70;;;;;;;5.48;87.35;99702.79;87318;1295;22459;-73
2022/09/26 03:52:27;;;;;;;14.30;12.80;;;;;;;5.47;87.37;99697.77;87247;1278;25224;-74
2022/09/26 03:54:33;;;;;;;15.80;13.50;;;;;;;5.47;87.49;99696.41;87320;1284;22461;-75
2022/09/26 03:56:39;;;;;;;21.20;15.50;;;;;;;5.48;87.57;99696.72;87256;1284;25275;-72
2022/09/26 03:58:45;;;;;;;18.90;14.50;;;;;;;5.50;88.02;99693.91;87328;1291;22489;-75
2022/09/26 04:00:51;;;;;;;20.00;15.10;;;;;;;5.49;87.47;99693.05;87340;1284;22496;-75
2022/09/26 04:02:56;;;;;;;22.90;15.50;;;;;;;5.49;87.62;99692.02;87365;1282;22467;-75
2022/09/26 04:05:02;;;;;;;21.60;16.30;;;;;;;5.48;87.75;99692.75;87197;1304;22786;-75
2022/09/26 04:07:08;;;;;;;20.50;16.20;;;;;;;5.47;87.64;99691.23;87430;1300;22507;-76
2022/09/26 04:09:16;;;;;;;22.00;15.90;;;;;;;5.41;87.36;99689.64;87177;1280;25376;-76
2022/09/26 04:11:23;;;;;;;21.70;15.40;;;;;;;5.40;87.44;99690.36;87327;1276;22461;-75
2022/09/26 04:13:29;;;;;;;19.60;14.80;;;;;;;5.38;87.70;99691.45;87312;1281;22474;-75
2022/09/26 04:15:34;;;;;;;20.30;14.30;;;;;;;5.39;87.66;99690.92;87179;1304;25521;-75
2022/09/26 04:17:40;;;;;;;21.40;16.20;;;;;;;5.39;87.60;99692.48;87277;1299;22588;-72
2022/09/26 04:19:46;;;;;;;17.50;14.30;;;;;;;5.38;87.56;99691.11;87345;1294;22604;-75
2022/09/26 04:21:51;;;;;;;18.20;13.90;;;;;;;5.37;87.43;99686.48;87270;1295;25232;-72
2022/09/26 04:23:57;;;;;;;21.20;13.90;;;;;;;5.38;87.77;99685.42;87167;1293;22489;-74
2022/09/26 04:26:06;;;;;;;23.80;15.10;;;;;;;5.38;87.75;99686.80;87321;1303;22467;-74
2022/09/26 04:28:11;;;;;;;17.50;14.70;;;;;;;5.38;87.80;99682.66;87259;1303;25276;-72
2022/09/26 04:30:20;;;;;;;18.00;15.00;;;;;;;5.39;87.82;99679.33;87348;1278;22462;-75
2022/09/26 04:32:25;;;;;;;20.70;14.80;;;;;;;5.36;87.52;99679.92;87311;1278;22589;-74
2022/09/26 04:34:32;;;;;;;20.90;16.20;;;;;;;5.33;87.64;99679.14;87303;1280;22486;-75
2022/09/26 04:36:37;;;;;;;21.30;14.90;;;;;;;5.32;88.02;99679.17;87322;1292;24893;-75
2022/09/26 04:38:43;;;;;;;20.10;13.90;;;;;;;5.30;87.79;99676.98;87315;1303;22461;-75
2022/09/26 04:40:49;;;;;;;18.30;14.20;;;;;;;5.30;87.76;99682.53;87319;1281;22488;-73
2022/09/26 04:42:54;;;;;;;22.60;15.90;;;;;;;5.29;88.06;99679.08;87208;1302;22507;-73
2022/09/26 04:45:03;;;;;;;20.70;14.90;;;;;;;5.32;88.41;99677.27;87314;1302;22479;-76
2022/09/26 04:47:12;;;;;;;18.80;15.00;;;;;;;5.33;88.49;99673.10;87281;1302;22465;-75
2022/09/26 04:49:17;;;;;;;21.10;15.80;;;;;;;5.35;88.66;99674.58;87306;1281;22473;-76
2022/09/26 04:51:24;;;;;;;22.20;15.90;;;;;;;5.43;89.36;99672.30;87306;1278;23069;-76
2022/09/26 04:53:30;;;;;;;20.30;16.10;;;;;;;5.52;89.53;99671.02;87343;1281;22472;-76
2022/09/26 04:55:36;;;;;;;23.00;16.50;;;;;;;5.61;89.73;99668.67;87339;1281;22523;-75
2022/09/26 04:57:41;;;;;;;20.30;16.10;;;;;;;5.69;90.18;99667.03;87206;1305;22465;-76
2022/09/26 04:59:47;;;;;;;23.40;18.50;;;;;;;5.76;90.29;99667.19;87303;1302;24112;-75
2022/09/26 05:01:52;;;;;;;24.00;17.30;;;;;;;5.85;90.37;99665.19;87309;1302;22464;-75
2022/09/26 05:03:58;;;;;;;20.70;15.60;;;;;;;5.94;90.70;99667.02;87159;1304;25701;-76
2022/09/26 05:06:04;;;;;;;22.20;16.40;;;;;;;6.02;90.54;99667.82;87068;1305;26557;-75
2022/09/26 05:08:10;;;;;;;25.10;17.70;;;;;;;6.11;90.47;99667.56;87323;1278;22493;-75
2022/09/26 05:10:16;;;;;;;23.40;17.50;;;;;;;6.19;90.68;99665.91;87093;1305;22486;-77
2022/09/26 05:12:22;;;;;;;25.30;17.60;;;;;;;6.26;91.02;99668.64;87029;1302;293108;-75
2022/09/26 05:14:30;;;;;;;24.60;19.20;;;;;;;6.34;90.95;99672.19;87345;1293;22501;-76
2022/09/26 05:17:05;;;;;;;21.40;17.70;;;;;;;6.42;90.87;99674.70;87275;1302;22470;-75
2022/09/26 05:19:11;;;;;;;22.80;17.30;;;;;;;6.50;90.85;99669.75;87189;1303;22482;-76
2022/09/26 05:21:18;;;;;;;20.90;16.00;;;;;;;6.58;91.05;99668.64;87171;1291;22466;-74
2022/09/26 05:26:28;;;;;;;20.30;17.20;;;;;;;6.75;91.66;99668.77;87260;1301;22479;-77
2022/09/26 05:28:35;;;;;;;17.40;15.30;;;;;;;6.86;91.43;99667.35;87286;1280;22938;-78
2022/09/26 05:30:52;;;;;;;16.60;14.40;;;;;;;6.93;91.33;99665.56;87053;1282;22938;-78
2022/09/26 05:33:01;;;;;;;22.70;13.20;;;;;;;7.02;91.33;99664.71;87080;1282;22695;-78
2022/09/26 05:35:11;;;;;;;15.10;12.20;;;;;;;7.11;91.45;99662.67;87197;1293;22458;-78
2022/09/26 05:37:19;;;;;;;18.20;14.60;;;;;;;7.29;91.73;99655.11;87171;1298;22621;-76
2022/09/26 05:41:50;;;;;;;16.30;14.60;;;;;;;8.92;98.88;99644.52;87076;1293;25299;-77
2022/09/26 05:43:55;;;;;;;19.80;15.20;;;;;;;10.03;100.00;99642.47;87206;1290;22459;-75
2022/09/26 05:46:03;;;;;;;19.10;16.40;;;;;;;10.95;98.47;99638.31;87162;1280;22508;-76
2022/09/26 05:48:09;;;;;;;23.30;18.40;;;;;;;11.64;94.62;99632.78;87220;1304;22475;-75
2022/09/26 05:50:14;;;;;;;24.50;17.50;;;;;;;11.96;91.28;99625.98;87041;1306;22610;-77
2022/09/26 05:52:21;;;;;;;20.90;16.80;;;;;;;12.24;91.27;99625.59;87181;1282;23888;-76
2022/09/26 05:54:27;;;;;;;23.80;17.20;;;;;;;12.58;89.89;99622.83;87089;1277;22476;-77
2022/09/26 05:56:36;;;;;;;19.50;17.40;;;;;;;12.89;87.17;99616.27;87213;1284;22487;-75
2022/09/26 05:58:42;;;;;;;18.70;16.30;;;;;;;12.93;85.05;99618.14;87159;1284;22471;-74
2022/09/26 06:00:48;;;;;;;21.10;16.90;;;;;;;12.77;83.55;99618.02;87198;1274;22501;-75
2022/09/26 06:02:57;;;;;;;21.30;17.10;;;;;;;12.69;82.33;99620.20;87237;1292;22448;-76
2022/09/26 06:05:02;;;;;;;20.50;17.70;;;;;;;12.60;81.50;99623.38;87174;1282;22744;-76
2022/09/26 06:07:09;;;;;;;21.00;18.30;;;;;;;12.37;81.09;99621.21;87245;1284;22477;-75
2022/09/26 06:09:15;;;;;;;20.90;18.50;;;;;;;12.17;81.05;99624.25;87235;1304;22519;-77
2022/09/26 06:11:29;;;;;;;23.20;18.90;;;;;;;12.03;81.32;99625.40;87228;1290;22500;-76
2022/09/26 06:13:36;;;;;;;24.10;18.00;;;;;;;11.95;81.61;99625.53;87236;1298;26610;-75
2022/09/26 06:15:42;;;;;;;21.40;19.10;;;;;;;11.84;81.58;99627.83;87240;1287;22605;-77
2022/09/26 06:17:50;;;;;;;21.50;17.20;;;;;;;11.76;81.72;99627.25;87189;1304;22485;-78
2022/09/26 06:19:55;;;;;;;21.80;16.40;;;;;;;11.68;81.97;99629.08;87074;1306;22477;-72
2022/09/26 06:22:02;;;;;;;19.60;16.00;;;;;;;11.59;81.93;99630.23;87196;1304;22708;-77
2022/09/26 06:24:09;;;;;;;22.20;17.40;;;;;;;11.51;81.94;99631.01;87176;1287;22488;-78
2022/09/26 06:26:18;;;;;;;22.30;17.00;;;;;;;11.47;82.01;99633.32;87235;1282;25138;-78
2022/09/26 06:28:25;;;;;;;19.80;16.90;;;;;;;11.46;82.48;99633.76;87184;1297;22476;-78
2022/09/26 06:30:32;;;;;;;25.40;16.70;;;;;;;11.46;82.63;99633.55;87234;1283;22477;-76
2022/09/26 06:32:40;;;;;;;25.80;20.20;;;;;;;11.48;82.75;99638.19;87183;1294;22585;-77
2022/09/26 06:34:46;;;;;;;22.70;18.80;;;;;;;11.49;83.04;99635.52;87160;1305;27136;-75
2022/09/26 06:36:52;;;;;;;25.60;20.10;;;;;;;11.54;83.44;99632.25;87230;1291;22457;-78
2022/09/26 06:38:57;;;;;;;23.90;18.80;;;;;;;11.60;83.62;99633.88;87089;1306;22561;-75
2022/09/26 06:41:06;;;;;;;24.60;20.30;;;;;;;11.65;83.67;99633.63;87209;1299;22461;-77
2022/09/26 06:43:12;;;;;;;27.70;19.30;;;;;;;11.70;83.67;99635.77;87182;1297;22451;-76
2022/09/26 06:45:18;;;;;;;24.20;19.70;;;;;;;11.75;84.04;99634.96;87208;1291;22453;-78
2022/09/26 06:47:25;;;;;;;26.10;18.90;;;;;;;11.82;84.03;99636.14;87228;1304;25265;-76
2022/09/26 06:49:33;;;;;;;23.30;20.10;;;;;;;11.91;84.29;99639.06;87234;1287;22462;-77
2022/09/26 06:51:41;;;;;;;21.80;19.20;;;;;;;11.98;84.33;99640.05;87214;1304;23665;-77
2022/09/26 06:53:47;;;;;;;21.40;19.00;;;;;;;12.07;84.34;99642.15;87222;1298;25262;-77
2022/09/26 06:55:53;;;;;;;26.90;19.30;;;;;;;12.16;84.46;99637.98;87207;1293;22477;-77
2022/09/26 06:57:58;;;;;;;23.30;19.20;;;;;;;12.25;84.57;99636.10;87228;1304;22461;-78
2022/09/26 07:00:05;;;;;;;23.50;19.20;;;;;;;12.36;84.64;99638.60;87179;1284;22457;-77
2022/09/26 07:02:11;;;;;;;28.10;20.20;;;;;;;12.46;84.46;99635.55;87217;1304;22791;-78
2022/09/26 07:04:17;;;;;;;23.10;20.60;;;;;;;12.54;84.22;99637.55;87168;1305;22513;-78
2022/09/26 07:06:23;;;;;;;22.90;19.80;;;;;;;12.61;84.35;99634.02;87188;1297;23790;-74
2022/09/26 07:08:29;;;;;;;25.00;19.80;;;;;;;12.70;84.34;99634.86;87234;1304;22468;-76
2022/09/26 07:10:36;;;;;;;25.60;20.50;;;;;;;12.80;84.32;99636.38;87217;1279;22463;-76
2022/09/26 07:12:42;;;;;;;26.40;19.10;;;;;;;12.89;83.96;99636.36;87218;1286;22459;-75
2022/09/26 07:14:50;;;;;;;24.70;21.10;;;;;;;12.98;83.75;99637.41;87240;1303;22765;-76
2022/09/26 07:16:55;;;;;;;26.00;18.90;;;;;;;13.06;83.61;99633.27;87229;1285;22523;-74
2022/09/26 07:19:01;;;;;;;26.60;20.10;;;;;;;13.14;83.46;99636.47;87198;1284;22501;-76
2022/09/26 07:21:07;;;;;;;26.50;21.20;;;;;;;13.22;83.57;99636.70;87216;1304;22514;-73
2022/09/26 07:23:13;;;;;;;23.00;20.30;;;;;;;13.33;83.52;99637.27;87223;1304;23707;-72
2022/09/26 07:25:19;;;;;;;24.70;20.50;;;;;;;13.46;83.11;99637.33;87243;1304;22566;-76
2022/09/26 07:27:24;;;;;;;27.40;20.70;;;;;;;13.57;82.69;99637.34;87175;1306;25532;-74
2022/09/26 07:29:31;;;;;;;22.10;19.70;;;;;;;13.73;82.61;99636.58;87202;1293;22788;-76
2022/09/26 07:31:37;;;;;;;27.50;20.60;;;;;;;13.89;82.44;99634.83;87219;1304;22550;-74
2022/09/26 07:33:44;;;;;;;24.70;19.40;;;;;;;14.14;82.52;99640.26;87209;1284;22458;-75
2022/09/26 07:35:50;;;;;;;23.70;20.20;;;;;;;14.52;82.58;99643.95;87216;1294;26460;-73
2022/09/26 07:37:57;;;;;;;24.90;20.40;;;;;;;14.96;81.13;99646.42;87227;1304;25385;-77
2022/09/26 07:40:04;;;;;;;26.00;19.60;;;;;;;15.43;80.02;99640.09;87106;1306;22454;-79
2022/09/26 07:42:10;;;;;;;23.50;18.80;;;;;;;15.94;79.25;99639.77;87197;1304;25681;-80
2022/09/26 07:44:16;;;;;;;23.80;18.40;;;;;;;16.51;78.01;99637.04;87230;1284;22511;-79
2022/09/26 07:51:10;;;;;;;19.10;17.00;;;;;;;18.49;74.20;99631.03;87190;1293;22467;-79
2022/09/26 07:53:16;;;;;;;26.30;17.80;;;;;;;19.32;71.89;99623.73;87198;1304;26580;-80
2022/09/26 07:55:26;;;;;;;18.00;15.60;;;;;;;20.16;69.53;99621.32;87220;1296;22501;-79
2022/09/26 07:57:34;;;;;;;16.70;14.90;;;;;;;21.03;65.46;99617.97;87216;1300;22461;-79
2022/09/26 07:59:39;;;;;;;19.90;16.90;;;;;;;21.81;63.64;99617.61;87241;1298;22489;-78
2022/09/26 08:01:45;;;;;;;16.00;14.40;;;;;;;22.43;60.17;99622.30;87217;1292;22456;-78
2022/09/26 08:03:54;;;;;;;16.70;15.00;;;;;;;22.93;56.37;99617.41;87182;1275;24940;-78
2022/09/26 08:06:02;;;;;;;16.10;13.40;;;;;;;23.45;55.47;99611.38;87231;1297;22471;-77
2022/09/26 08:08:07;;;;;;;18.30;14.00;;;;;;;23.96;52.53;99608.50;87203;1304;24380;-77
2022/09/26 08:10:18;;;;;;;16.50;13.50;;;;;;;24.42;51.63;99610.91;87196;1300;22466;-78
2022/09/26 08:12:25;;;;;;;16.40;14.80;;;;;;;24.97;49.67;99609.04;87216;1277;22533;-79
2022/09/26 08:14:31;;;;;;;19.20;15.40;;;;;;;25.43;48.47;99605.08;87232;1304;22470;-77
2022/09/26 08:16:40;;;;;;;15.80;14.00;;;;;;;25.79;47.23;99610.55;87251;1304;22469;-78
2022/09/26 08:18:45;;;;;;;19.40;15.70;;;;;;;26.09;45.49;99606.23;87213;1291;22465;-78
2022/09/26 08:20:51;;;;;;;18.10;14.30;;;;;;;26.27;44.90;99604.90;87212;1304;22458;-78
2022/09/26 08:22:56;;;;;;;16.40;14.80;;;;;;;26.40;44.32;99605.48;87228;1301;22638;-78
2022/09/26 08:25:05;;;;;;;19.30;16.60;;;;;;;26.29;44.16;99601.52;87265;1298;22464;-79
2022/09/26 08:27:12;;;;;;;21.20;16.90;;;;;;;26.09;43.92;99598.31;87108;1305;25631;-79
2022/09/26 08:29:17;;;;;;;19.30;16.10;;;;;;;25.77;43.83;99594.64;87222;1289;22490;-79
2022/09/26 08:31:22;;;;;;;22.30;16.20;;;;;;;25.46;43.96;99595.33;87176;1298;22481;-77
2022/09/26 08:33:28;;;;;;;17.20;15.50;;;;;;;25.23;44.42;99597.17;87203;1300;22455;-81
2022/09/26 08:35:37;;;;;;;19.30;15.50;;;;;;;25.16;44.83;99596.36;87206;1304;22579;-79
2022/09/26 08:37:43;;;;;;;16.70;15.00;;;;;;;25.21;44.81;99597.83;87161;1306;23706;-79
2022/09/26 08:39:49;;;;;;;17.30;13.90;;;;;;;25.25;44.29;99594.84;87213;1294;22456;-80
2022/09/26 08:42:22;;;;;;;18.60;14.40;;;;;;;25.18;43.89;99595.44;87215;1299;25265;-80
2022/09/26 08:44:48;;;;;;;14.90;12.30;;;;;;;25.07;43.49;99592.55;87218;1288;22458;-80
2022/09/26 08:46:59;;;;;;;15.70;12.10;;;;;;;24.84;44.03;99594.39;87232;1284;22465;-79
2022/09/26 08:49:49;;;;;;;14.50;12.90;;;;;;;24.60;44.52;99591.41;87181;1306;22466;-79
2022/09/26 08:51:56;;;;;;;15.80;12.60;;;;;;;24.32;44.81;99592.67;87103;1304;22470;-78
2022/09/26 08:54:05;;;;;;;13.10;11.70;;;;;;;24.14;44.77;99591.11;87170;1306;22546;-77
2022/09/26 08:56:18;;;;;;;18.60;13.40;;;;;;;24.18;44.78;99588.48;87279;1291;21726;-79
2022/09/26 08:58:27;;;;;;;14.30;12.70;;;;;;;24.23;45.14;99586.08;87222;1304;22474;-80
2022/09/26 09:00:34;;;;;;;15.20;12.20;;;;;;;24.37;45.16;99583.57;87227;1298;22562;-79
2022/09/26 09:02:42;;;;;;;14.00;11.80;;;;;;;24.49;45.03;99577.17;87213;1304;22483;-78
2022/09/26 09:04:54;;;;;;;16.20;14.40;;;;;;;24.51;45.55;99575.40;87230;1304;22473;-76
2022/09/26 09:07:06;;;;;;;17.50;15.60;;;;;;;24.53;44.91;99574.23;87165;1297;22477;-79
2022/09/26 09:09:14;;;;;;;16.00;14.40;;;;;;;24.61;44.82;99568.50;87196;1300;22461;-79
2022/09/26 09:11:30;;;;;;;15.90;14.20;;;;;;;24.79;44.67;99568.72;87173;1284;22459;-80
2022/09/26 09:13:53;;;;;;;18.30;13.40;;;;;;;25.02;43.98;99564.89;87249;1304;23850;-79
2022/09/26 09:16:09;;;;;;;14.20;12.20;;;;;;;25.30;44.11;99565.95;87216;1285;22475;-79
2022/09/26 09:18:28;;;;;;;16.30;13.30;;;;;;;25.68;43.74;99562.70;87226;1304;21730;-79
2022/09/26 09:20:46;;;;;;;18.00;14.10;;;;;;;26.09;42.80;99562.18;87225;1304;24372;-79
2022/09/26 09:23:09;;;;;;;17.90;16.00;;;;;;;26.42;42.65;99563.15;87191;1284;26578;-79
2022/09/26 09:25:17;;;;;;;14.90;13.40;;;;;;;26.73;41.37;99556.36;87203;1284;24066;-78
2022/09/26 09:27:32;;;;;;;13.70;12.30;;;;;;;26.91;40.93;99559.00;87259;1288;24268;-79
2022/09/26 09:29:55;;;;;;;13.40;12.10;;;;;;;27.18;40.75;99555.46;87260;1304;22508;-79
2022/09/26 09:32:02;;;;;;;14.30;12.80;;;;;;;27.41;39.67;99551.38;87233;1306;22445;-78
2022/09/26 09:34:12;;;;;;;13.50;12.10;;;;;;;27.48;39.35;99548.41;87218;1306;22471;-79
2022/09/26 09:36:19;;;;;;;13.40;10.90;;;;;;;27.41;38.32;99551.59;87229;1290;24366;-79
2022/09/26 09:38:30;;;;;;;11.20;9.90;;;;;;;27.37;38.98;99551.20;87228;1304;22457;-78
2022/09/26 09:40:38;;;;;;;15.70;10.60;;;;;;;27.41;38.23;99548.57;87193;1306;22470;-79
2022/09/26 09:42:47;;;;;;;10.00;9.20;;;;;;;27.30;38.38;99544.96;87225;1284;22467;-79
2022/09/26 09:44:57;;;;;;;9.30;8.50;;;;;;;27.07;38.47;99547.60;87220;1304;22460;-78
2022/09/26 09:47:06;;;;;;;8.80;7.90;;;;;;;26.76;38.54;99547.88;87216;1304;22477;-79
2022/09/26 09:49:18;;;;;;;10.00;9.00;;;;;;;26.35;38.18;99550.07;87231;1298;22458;-79
2022/09/26 09:51:37;;;;;;;9.70;8.70;;;;;;;25.76;38.56;99547.79;87257;1284;22458;-77
2022/09/26 09:53:56;;;;;;;10.70;9.30;;;;;;;25.18;39.53;99546.67;87234;1301;25276;-79
2022/09/26 09:56:07;;;;;;;12.90;9.90;;;;;;;24.56;40.31;99542.81;87232;1306;22553;-80
2022/09/26 09:58:40;;;;;;;11.50;10.40;;;;;;;24.04;41.63;99544.71;87239;1306;22464;-79
2022/09/26 10:00:48;;;;;;;10.90;9.80;;;;;;;23.48;42.20;99545.17;87237;1292;22474;-78
2022/09/26 10:02:58;;;;;;;11.00;9.50;;;;;;;23.06;43.28;99543.64;87247;1300;22441;-79
2022/09/26 10:05:15;;;;;;;10.20;9.20;;;;;;;22.75;43.64;99547.55;87203;1296;22463;-78
2022/09/26 10:07:21;;;;;;;9.50;8.70;;;;;;;22.42;44.26;99548.21;87243;1301;22459;-79
2022/09/26 10:09:31;;;;;;;10.80;9.10;;;;;;;22.23;45.46;99548.02;87226;1306;22478;-78